Terminal Aerodrome Forecast
Issued by NWS

Home | Current Version | Previous Version | Text Only | Print | Product List | Glossary Off
Versions: 1 2 3 4 5 6 7 8 9 10 11 12 13 14 15 16 17 18 19 20

457
FTUS43 KICT 282158 AAA
TAFCNU
TAF AMD
KCNU 282158Z 2822/0118 21022G30KT P6SM OVC100
     FM282300 17022G30KT P6SM VCTS SCT025CB OVC130
     FM010200 21017G26KT P6SM VCSH SCT015 OVC100
      TEMPO 0102/0105 4SM -RA BR OVC015
     FM010500 32022G30KT P6SM VCSH OVC015=

USA.gov is the U.S. government's official web portal to all federal, state and local government web resources and services.